sensor_id;sensor_type;location;lat;lon;timestamp;temperature;humidity
31133;DHT22;17779;50.942;4.026;2024-01-11T00:01:10;-2.10;99.90
31133;DHT22;17779;50.942;4.026;2024-01-11T00:03:37;-2.00;99.90
31133;DHT22;17779;50.942;4.026;2024-01-11T00:06:05;-1.90;99.90
31133;DHT22;17779;50.942;4.026;2024-01-11T00:08:31;-2.10;99.90
31133;DHT22;17779;50.942;4.026;2024-01-11T00:10:56;-2.20;99.90
31133;DHT22;17779;50.942;4.026;2024-01-11T00:13:25;-2.20;99.90
31133;DHT22;17779;50.942;4.026;2024-01-11T00:15:53;-2.10;99.90
31133;DHT22;17779;50.942;4.026;2024-01-11T00:18:19;-2.20;99.90
31133;DHT22;17779;50.942;4.026;2024-01-11T00:20:51;-2.10;99.90
31133;DHT22;17779;50.942;4.026;2024-01-11T00:23:18;-2.20;99.90
31133;DHT22;17779;50.942;4.026;2024-01-11T00:25:45;-2.30;99.90
31133;DHT22;17779;50.942;4.026;2024-01-11T00:28:10;-2.20;99.90
31133;DHT22;17779;50.942;4.026;2024-01-11T00:30:36;-2.30;99.90
31133;DHT22;17779;50.942;4.026;2024-01-11T00:33:03;-2.20;99.90
31133;DHT22;17779;50.942;4.026;2024-01-11T00:35:29;-2.50;99.90
31133;DHT22;17779;50.942;4.026;2024-01-11T00:37:55;-2.50;99.90
31133;DHT22;17779;50.942;4.026;2024-01-11T00:40:20;-2.50;99.90
31133;DHT22;17779;50.942;4.026;2024-01-11T00:42:46;-2.30;99.90
31133;DHT22;17779;50.942;4.026;2024-01-11T00:45:11;-2.30;99.90
31133;DHT22;17779;50.942;4.026;2024-01-11T00:47:38;-2.40;99.90
31133;DHT22;17779;50.942;4.026;2024-01-11T00:50:04;-2.60;99.90
31133;DHT22;17779;50.942;4.026;2024-01-11T00:54:58;-2.30;99.90
31133;DHT22;17779;50.942;4.026;2024-01-11T00:57:24;-2.20;99.90
31133;DHT22;17779;50.942;4.026;2024-01-11T01:02:19;-2.10;99.90
31133;DHT22;17779;50.942;4.026;2024-01-11T01:04:46;-2.20;99.90
31133;DHT22;17779;50.942;4.026;2024-01-11T01:07:12;-2.20;99.90
31133;DHT22;17779;50.942;4.026;2024-01-11T01:09:40;-2.30;99.90
31133;DHT22;17779;50.942;4.026;2024-01-11T01:12:09;-2.50;99.90
31133;DHT22;17779;50.942;4.026;2024-01-11T01:14:36;-2.50;99.90
31133;DHT22;17779;50.942;4.026;2024-01-11T01:17:02;-2.40;99.90
31133;DHT22;17779;50.942;4.026;2024-01-11T01:19:30;-2.40;99.90
31133;DHT22;17779;50.942;4.026;2024-01-11T01:22:02;-2.30;99.90
31133;DHT22;17779;50.942;4.026;2024-01-11T01:24:28;-2.40;99.90
31133;DHT22;17779;50.942;4.026;2024-01-11T01:26:56;-2.40;99.90
31133;DHT22;17779;50.942;4.026;2024-01-11T01:29:21;-2.40;99.90
31133;DHT22;17779;50.942;4.026;2024-01-11T01:31:48;-2.60;99.90
31133;DHT22;17779;50.942;4.026;2024-01-11T01:34:14;-2.90;99.90
31133;DHT22;17779;50.942;4.026;2024-01-11T01:36:41;-3.00;99.90
31133;DHT22;17779;50.942;4.026;2024-01-11T01:41:38;-3.00;99.90
31133;DHT22;17779;50.942;4.026;2024-01-11T01:46:32;-3.10;99.90
31133;DHT22;17779;50.942;4.026;2024-01-11T01:49:05;-3.00;99.90
31133;DHT22;17779;50.942;4.026;2024-01-11T01:51:32;-2.90;99.90
31133;DHT22;17779;50.942;4.026;2024-01-11T01:54:00;-3.00;99.90
31133;DHT22;17779;50.942;4.026;2024-01-11T01:56:28;-3.00;99.90
31133;DHT22;17779;50.942;4.026;2024-01-11T01:58:56;-2.90;99.90
31133;DHT22;17779;50.942;4.026;2024-01-11T02:01:21;-2.80;99.90
31133;DHT22;17779;50.942;4.026;2024-01-11T02:03:53;-2.80;99.90
31133;DHT22;17779;50.942;4.026;2024-01-11T02:06:21;-2.80;99.90
31133;DHT22;17779;50.942;4.026;2024-01-11T02:08:48;-2.90;99.90
31133;DHT22;17779;50.942;4.026;2024-01-11T02:11:17;-2.80;99.90
31133;DHT22;17779;50.942;4.026;2024-01-11T02:13:50;-2.70;99.90
31133;DHT22;17779;50.942;4.026;2024-01-11T02:16:19;-2.70;99.90
31133;DHT22;17779;50.942;4.026;2024-01-11T02:18:45;-2.90;99.90
31133;DHT22;17779;50.942;4.026;2024-01-11T02:21:13;-3.10;99.90
31133;DHT22;17779;50.942;4.026;2024-01-11T02:23:42;-3.20;99.90
31133;DHT22;17779;50.942;4.026;2024-01-11T02:26:11;-3.00;99.90
31133;DHT22;17779;50.942;4.026;2024-01-11T02:28:37;-3.00;99.90
31133;DHT22;17779;50.942;4.026;2024-01-11T02:31:05;-2.90;99.90
31133;DHT22;17779;50.942;4.026;2024-01-11T02:36:02;-2.90;99.90
31133;DHT22;17779;50.942;4.026;2024-01-11T02:38:29;-2.80;99.90
31133;DHT22;17779;50.942;4.026;2024-01-11T02:40:55;-2.80;99.90
31133;DHT22;17779;50.942;4.026;2024-01-11T02:43:23;-2.60;99.90
31133;DHT22;17779;50.942;4.026;2024-01-11T02:45:49;-2.70;99.90
31133;DHT22;17779;50.942;4.026;2024-01-11T02:48:15;-2.70;99.90
31133;DHT22;17779;50.942;4.026;2024-01-11T02:50:42;-2.60;99.90
31133;DHT22;17779;50.942;4.026;2024-01-11T02:53:08;-2.70;99.90
31133;DHT22;17779;50.942;4.026;2024-01-11T02:55:33;-2.70;99.90
31133;DHT22;17779;50.942;4.026;2024-01-11T02:58:00;-2.70;99.90
31133;DHT22;17779;50.942;4.026;2024-01-11T03:00:26;-2.70;99.90
31133;DHT22;17779;50.942;4.026;2024-01-11T03:02:52;-2.60;99.90
31133;DHT22;17779;50.942;4.026;2024-01-11T03:05:20;-2.50;99.90
31133;DHT22;17779;50.942;4.026;2024-01-11T03:07:46;-2.40;99.90
31133;DHT22;17779;50.942;4.026;2024-01-11T03:12:41;-2.50;99.90
31133;DHT22;17779;50.942;4.026;2024-01-11T03:17:38;-2.40;99.90
31133;DHT22;17779;50.942;4.026;2024-01-11T03:20:04;-2.50;99.90
31133;DHT22;17779;50.942;4.026;2024-01-11T03:25:00;-2.70;99.90
31133;DHT22;17779;50.942;4.026;2024-01-11T03:27:27;-2.90;99.90
31133;DHT22;17779;50.942;4.026;2024-01-11T03:29:55;-2.80;99.90
31133;DHT22;17779;50.942;4.026;2024-01-11T03:32:20;-2.70;99.90
31133;DHT22;17779;50.942;4.026;2024-01-11T03:34:47;-2.60;99.90
31133;DHT22;17779;50.942;4.026;2024-01-11T03:37:14;-2.60;99.90
31133;DHT22;17779;50.942;4.026;2024-01-11T03:39:43;-2.50;99.90
31133;DHT22;17779;50.942;4.026;2024-01-11T03:42:11;-2.60;99.90
31133;DHT22;17779;50.942;4.026;2024-01-11T03:44:37;-2.80;99.90
31133;DHT22;17779;50.942;4.026;2024-01-11T03:47:03;-2.90;99.90
31133;DHT22;17779;50.942;4.026;2024-01-11T03:49:30;-2.90;99.90
31133;DHT22;17779;50.942;4.026;2024-01-11T03:51:56;-2.90;99.90
31133;DHT22;17779;50.942;4.026;2024-01-11T03:54:23;-3.30;99.90
31133;DHT22;17779;50.942;4.026;2024-01-11T03:56:49;-3.50;99.90
31133;DHT22;17779;50.942;4.026;2024-01-11T03:59:14;-3.60;99.90
31133;DHT22;17779;50.942;4.026;2024-01-11T04:01:42;-3.60;99.90
31133;DHT22;17779;50.942;4.026;2024-01-11T04:04:08;-3.60;99.90
31133;DHT22;17779;50.942;4.026;2024-01-11T04:06:36;-3.40;99.90
31133;DHT22;17779;50.942;4.026;2024-01-11T04:09:01;-3.30;99.90
31133;DHT22;17779;50.942;4.026;2024-01-11T04:11:27;-3.30;99.90
31133;DHT22;17779;50.942;4.026;2024-01-11T04:13:53;-3.30;99.90
31133;DHT22;17779;50.942;4.026;2024-01-11T04:16:21;-3.40;99.90
31133;DHT22;17779;50.942;4.026;2024-01-11T04:18:46;-3.30;99.90
31133;DHT22;17779;50.942;4.026;2024-01-11T04:23:50;-3.00;99.90
31133;DHT22;17779;50.942;4.026;2024-01-11T04:26:18;-3.10;99.90
31133;DHT22;17779;50.942;4.026;2024-01-11T04:28:46;-3.60;99.90
31133;DHT22;17779;50.942;4.026;2024-01-11T04:33:44;-3.90;99.90
31133;DHT22;17779;50.942;4.026;2024-01-11T04:36:10;-3.70;99.90
31133;DHT22;17779;50.942;4.026;2024-01-11T04:38:38;-3.50;99.90
31133;DHT22;17779;50.942;4.026;2024-01-11T04:41:09;-3.80;99.90
31133;DHT22;17779;50.942;4.026;2024-01-11T04:43:40;-3.90;99.90
31133;DHT22;17779;50.942;4.026;2024-01-11T04:48:58;-3.60;99.90
31133;DHT22;17779;50.942;4.026;2024-01-11T04:51:25;-3.50;99.90
31133;DHT22;17779;50.942;4.026;2024-01-11T04:56:20;-3.60;99.90
31133;DHT22;17779;50.942;4.026;2024-01-11T04:58:46;-3.50;99.90
31133;DHT22;17779;50.942;4.026;2024-01-11T05:01:12;-3.30;99.90
31133;DHT22;17779;50.942;4.026;2024-01-11T05:03:39;-3.30;99.90
31133;DHT22;17779;50.942;4.026;2024-01-11T05:06:04;-3.40;99.90
31133;DHT22;17779;50.942;4.026;2024-01-11T05:08:31;-3.20;99.90
31133;DHT22;17779;50.942;4.026;2024-01-11T05:11:00;-3.20;99.90
31133;DHT22;17779;50.942;4.026;2024-01-11T05:13:26;-3.10;99.90
31133;DHT22;17779;50.942;4.026;2024-01-11T05:15:52;-3.30;99.90
31133;DHT22;17779;50.942;4.026;2024-01-11T05:18:18;-3.60;99.90
31133;DHT22;17779;50.942;4.026;2024-01-11T05:20:44;-3.70;99.90
31133;DHT22;17779;50.942;4.026;2024-01-11T05:23:11;-3.60;99.90
31133;DHT22;17779;50.942;4.026;2024-01-11T05:25:38;-3.70;99.90
31133;DHT22;17779;50.942;4.026;2024-01-11T05:28:03;-3.50;99.90
31133;DHT22;17779;50.942;4.026;2024-01-11T05:30:29;-3.40;99.90
31133;DHT22;17779;50.942;4.026;2024-01-11T05:32:55;-3.30;99.90
31133;DHT22;17779;50.942;4.026;2024-01-11T05:35:22;-3.40;99.90
31133;DHT22;17779;50.942;4.026;2024-01-11T05:37:53;-3.40;99.90
31133;DHT22;17779;50.942;4.026;2024-01-11T05:40:20;-3.40;99.90
31133;DHT22;17779;50.942;4.026;2024-01-11T05:42:46;-3.40;99.90
31133;DHT22;17779;50.942;4.026;2024-01-11T05:45:12;-3.40;99.90
31133;DHT22;17779;50.942;4.026;2024-01-11T05:47:40;-3.40;99.90
31133;DHT22;17779;50.942;4.026;2024-01-11T05:50:08;-3.30;99.90
31133;DHT22;17779;50.942;4.026;2024-01-11T05:52:36;-3.30;99.90
31133;DHT22;17779;50.942;4.026;2024-01-11T05:55:03;-3.40;99.90
31133;DHT22;17779;50.942;4.026;2024-01-11T05:57:30;-3.40;99.90
31133;DHT22;17779;50.942;4.026;2024-01-11T05:59:58;-3.40;99.90
31133;DHT22;17779;50.942;4.026;2024-01-11T06:02:25;-3.40;99.90
31133;DHT22;17779;50.942;4.026;2024-01-11T06:04:52;-3.40;99.90
31133;DHT22;17779;50.942;4.026;2024-01-11T06:07:18;-3.40;99.90
31133;DHT22;17779;50.942;4.026;2024-01-11T06:09:43;-3.40;99.90
31133;DHT22;17779;50.942;4.026;2024-01-11T06:12:15;-3.50;99.90
31133;DHT22;17779;50.942;4.026;2024-01-11T06:14:42;-3.40;99.90
31133;DHT22;17779;50.942;4.026;2024-01-11T06:17:08;-3.60;99.90
31133;DHT22;17779;50.942;4.026;2024-01-11T06:19:36;-3.70;99.90
31133;DHT22;17779;50.942;4.026;2024-01-11T06:22:03;-3.50;99.90
31133;DHT22;17779;50.942;4.026;2024-01-11T06:24:29;-3.40;99.90
31133;DHT22;17779;50.942;4.026;2024-01-11T06:26:55;-3.50;99.90
31133;DHT22;17779;50.942;4.026;2024-01-11T06:29:21;-3.60;99.90
31133;DHT22;17779;50.942;4.026;2024-01-11T06:31:46;-3.70;99.90
31133;DHT22;17779;50.942;4.026;2024-01-11T06:34:12;-3.50;99.90
31133;DHT22;17779;50.942;4.026;2024-01-11T06:36:39;-3.30;99.90
31133;DHT22;17779;50.942;4.026;2024-01-11T06:39:04;-3.20;99.90
31133;DHT22;17779;50.942;4.026;2024-01-11T06:41:33;-3.30;99.90
31133;DHT22;17779;50.942;4.026;2024-01-11T06:44:00;-3.30;99.90
31133;DHT22;17779;50.942;4.026;2024-01-11T06:46:25;-3.20;99.90
31133;DHT22;17779;50.942;4.026;2024-01-11T06:48:53;-3.20;99.90
31133;DHT22;17779;50.942;4.026;2024-01-11T06:51:21;-3.50;99.90
31133;DHT22;17779;50.942;4.026;2024-01-11T06:53:48;-3.80;99.90
31133;DHT22;17779;50.942;4.026;2024-01-11T06:56:18;-3.80;99.90
31133;DHT22;17779;50.942;4.026;2024-01-11T06:58:45;-3.80;99.90
31133;DHT22;17779;50.942;4.026;2024-01-11T07:01:13;-4.00;99.90
31133;DHT22;17779;50.942;4.026;2024-01-11T07:03:39;-3.90;99.90
31133;DHT22;17779;50.942;4.026;2024-01-11T07:06:05;-3.90;99.90
31133;DHT22;17779;50.942;4.026;2024-01-11T07:08:31;-3.80;99.90
31133;DHT22;17779;50.942;4.026;2024-01-11T07:11:00;-3.80;99.90
31133;DHT22;17779;50.942;4.026;2024-01-11T07:13:26;-3.60;99.90
31133;DHT22;17779;50.942;4.026;2024-01-11T07:15:51;-3.60;99.90
31133;DHT22;17779;50.942;4.026;2024-01-11T07:18:17;-3.40;99.90
31133;DHT22;17779;50.942;4.026;2024-01-11T07:20:43;-3.40;99.90
31133;DHT22;17779;50.942;4.026;2024-01-11T07:25:39;-3.60;99.90
31133;DHT22;17779;50.942;4.026;2024-01-11T07:28:05;-3.90;99.90
31133;DHT22;17779;50.942;4.026;2024-01-11T07:30:30;-4.00;99.90
31133;DHT22;17779;50.942;4.026;2024-01-11T07:32:56;-3.80;99.90
31133;DHT22;17779;50.942;4.026;2024-01-11T07:35:21;-3.60;99.90
31133;DHT22;17779;50.942;4.026;2024-01-11T07:37:47;-3.60;99.90
31133;DHT22;17779;50.942;4.026;2024-01-11T07:40:13;-3.40;99.90
31133;DHT22;17779;50.942;4.026;2024-01-11T07:42:41;-3.40;99.90
31133;DHT22;17779;50.942;4.026;2024-01-11T07:45:07;-3.10;99.90
31133;DHT22;17779;50.942;4.026;2024-01-11T07:47:35;-3.20;99.90
31133;DHT22;17779;50.942;4.026;2024-01-11T07:50:04;-3.50;99.90
31133;DHT22;17779;50.942;4.026;2024-01-11T07:52:32;-3.90;99.90
31133;DHT22;17779;50.942;4.026;2024-01-11T07:54:59;-4.10;99.90
31133;DHT22;17779;50.942;4.026;2024-01-11T07:57:32;-4.20;99.90
31133;DHT22;17779;50.942;4.026;2024-01-11T07:59:58;-4.10;99.90
31133;DHT22;17779;50.942;4.026;2024-01-11T08:02:24;-3.80;99.90
31133;DHT22;17779;50.942;4.026;2024-01-11T08:04:51;-3.70;99.90
31133;DHT22;17779;50.942;4.026;2024-01-11T08:07:17;-3.50;99.90
31133;DHT22;17779;50.942;4.026;2024-01-11T08:09:43;-3.60;99.90
31133;DHT22;17779;50.942;4.026;2024-01-11T08:12:16;-3.90;99.90
31133;DHT22;17779;50.942;4.026;2024-01-11T08:14:43;-3.70;99.90
31133;DHT22;17779;50.942;4.026;2024-01-11T08:17:13;-3.50;99.90
31133;DHT22;17779;50.942;4.026;2024-01-11T08:19:41;-3.50;99.90
31133;DHT22;17779;50.942;4.026;2024-01-11T08:22:10;-3.30;99.90
31133;DHT22;17779;50.942;4.026;2024-01-11T08:24:36;-3.50;99.90
31133;DHT22;17779;50.942;4.026;2024-01-11T08:27:01;-3.80;99.90
31133;DHT22;17779;50.942;4.026;2024-01-11T08:29:27;-3.90;99.90
31133;DHT22;17779;50.942;4.026;2024-01-11T08:31:53;-3.90;99.90
31133;DHT22;17779;50.942;4.026;2024-01-11T08:34:21;-3.90;99.90
31133;DHT22;17779;50.942;4.026;2024-01-11T08:36:46;-3.80;99.90
31133;DHT22;17779;50.942;4.026;2024-01-11T08:39:13;-3.50;99.90
31133;DHT22;17779;50.942;4.026;2024-01-11T08:41:39;-3.50;99.90
31133;DHT22;17779;50.942;4.026;2024-01-11T08:44:05;-3.70;99.90
31133;DHT22;17779;50.942;4.026;2024-01-11T08:46:32;-3.60;99.90
31133;DHT22;17779;50.942;4.026;2024-01-11T08:49:01;-3.40;99.90
31133;DHT22;17779;50.942;4.026;2024-01-11T08:51:28;-2.90;99.90
31133;DHT22;17779;50.942;4.026;2024-01-11T08:53:55;-2.40;99.90
31133;DHT22;17779;50.942;4.026;2024-01-11T08:56:21;-2.20;99.90
31133;DHT22;17779;50.942;4.026;2024-01-11T08:58:47;-2.10;99.90
31133;DHT22;17779;50.942;4.026;2024-01-11T09:01:13;-2.30;99.90
31133;DHT22;17779;50.942;4.026;2024-01-11T09:03:39;-2.40;99.90
31133;DHT22;17779;50.942;4.026;2024-01-11T09:06:05;-2.30;99.90
31133;DHT22;17779;50.942;4.026;2024-01-11T09:08:32;-1.90;99.90
31133;DHT22;17779;50.942;4.026;2024-01-11T09:11:00;-1.50;99.90
31133;DHT22;17779;50.942;4.026;2024-01-11T09:13:27;-1.00;99.90
31133;DHT22;17779;50.942;4.026;2024-01-11T09:15:53;-0.40;99.90
31133;DHT22;17779;50.942;4.026;2024-01-11T09:18:19;0.50;99.90
31133;DHT22;17779;50.942;4.026;2024-01-11T09:20:45;1.30;99.90
31133;DHT22;17779;50.942;4.026;2024-01-11T09:23:11;2.20;99.90
31133;DHT22;17779;50.942;4.026;2024-01-11T09:25:37;2.60;99.90
31133;DHT22;17779;50.942;4.026;2024-01-11T09:28:03;3.50;99.90
31133;DHT22;17779;50.942;4.026;2024-01-11T09:30:32;4.10;99.90
31133;DHT22;17779;50.942;4.026;2024-01-11T09:32:57;5.10;99.90
31133;DHT22;17779;50.942;4.026;2024-01-11T09:35:23;6.00;99.90
31133;DHT22;17779;50.942;4.026;2024-01-11T09:37:51;6.10;99.90
31133;DHT22;17779;50.942;4.026;2024-01-11T09:40:17;6.40;99.90
31133;DHT22;17779;50.942;4.026;2024-01-11T09:42:43;7.20;99.90
31133;DHT22;17779;50.942;4.026;2024-01-11T09:45:12;6.70;99.90
31133;DHT22;17779;50.942;4.026;2024-01-11T09:47:40;7.30;99.60
31133;DHT22;17779;50.942;4.026;2024-01-11T09:50:06;7.90;98.30
31133;DHT22;17779;50.942;4.026;2024-01-11T09:52:33;7.80;96.70
31133;DHT22;17779;50.942;4.026;2024-01-11T09:55:02;8.10;96.80
31133;DHT22;17779;50.942;4.026;2024-01-11T09:57:31;8.90;95.00
31133;DHT22;17779;50.942;4.026;2024-01-11T10:00:00;8.30;93.90
31133;DHT22;17779;50.942;4.026;2024-01-11T10:02:29;8.50;94.10
31133;DHT22;17779;50.942;4.026;2024-01-11T10:04:55;8.20;93.70
31133;DHT22;17779;50.942;4.026;2024-01-11T10:07:21;8.50;93.80
31133;DHT22;17779;50.942;4.026;2024-01-11T10:09:48;8.60;92.90
31133;DHT22;17779;50.942;4.026;2024-01-11T10:12:17;8.60;92.70
31133;DHT22;17779;50.942;4.026;2024-01-11T10:14:44;9.10;92.50
31133;DHT22;17779;50.942;4.026;2024-01-11T10:17:10;8.80;92.50
31133;DHT22;17779;50.942;4.026;2024-01-11T10:19:37;9.00;92.70
31133;DHT22;17779;50.942;4.026;2024-01-11T10:22:02;9.40;91.50
31133;DHT22;17779;50.942;4.026;2024-01-11T10:24:30;9.60;91.10
31133;DHT22;17779;50.942;4.026;2024-01-11T10:26:56;9.00;91.80
31133;DHT22;17779;50.942;4.026;2024-01-11T10:29:22;9.20;91.80
31133;DHT22;17779;50.942;4.026;2024-01-11T10:31:49;8.50;92.10
31133;DHT22;17779;50.942;4.026;2024-01-11T10:34:17;8.40;93.00
31133;DHT22;17779;50.942;4.026;2024-01-11T10:36:44;8.40;93.20
31133;DHT22;17779;50.942;4.026;2024-01-11T10:39:11;7.40;93.60
31133;DHT22;17779;50.942;4.026;2024-01-11T10:41:39;6.90;94.70
31133;DHT22;17779;50.942;4.026;2024-01-11T10:44:07;6.30;95.80
31133;DHT22;17779;50.942;4.026;2024-01-11T10:46:37;6.60;96.50
31133;DHT22;17779;50.942;4.026;2024-01-11T10:49:03;7.00;95.80
31133;DHT22;17779;50.942;4.026;2024-01-11T10:51:29;6.70;96.30
31133;DHT22;17779;50.942;4.026;2024-01-11T10:53:57;6.90;96.60
31133;DHT22;17779;50.942;4.026;2024-01-11T10:56:25;7.00;96.90
31133;DHT22;17779;50.942;4.026;2024-01-11T10:58:51;6.10;97.30
31133;DHT22;17779;50.942;4.026;2024-01-11T11:01:20;5.00;99.70
31133;DHT22;17779;50.942;4.026;2024-01-11T11:03:46;4.20;99.90
31133;DHT22;17779;50.942;4.026;2024-01-11T11:06:13;4.10;99.90
31133;DHT22;17779;50.942;4.026;2024-01-11T11:08:40;4.40;99.90
31133;DHT22;17779;50.942;4.026;2024-01-11T11:11:07;5.00;99.90
31133;DHT22;17779;50.942;4.026;2024-01-11T11:13:33;5.20;99.90
31133;DHT22;17779;50.942;4.026;2024-01-11T11:16:03;5.30;99.90
31133;DHT22;17779;50.942;4.026;2024-01-11T11:18:29;5.20;99.90
31133;DHT22;17779;50.942;4.026;2024-01-11T11:20:55;4.70;99.90
31133;DHT22;17779;50.942;4.026;2024-01-11T11:23:21;4.90;99.90
31133;DHT22;17779;50.942;4.026;2024-01-11T11:25:49;4.60;99.90
31133;DHT22;17779;50.942;4.026;2024-01-11T11:28:18;4.00;99.90
31133;DHT22;17779;50.942;4.026;2024-01-11T11:30:44;4.30;99.90
31133;DHT22;17779;50.942;4.026;2024-01-11T11:33:17;4.40;99.90
31133;DHT22;17779;50.942;4.026;2024-01-11T11:35:43;4.60;99.90
31133;DHT22;17779;50.942;4.026;2024-01-11T11:38:18;4.70;99.90
31133;DHT22;17779;50.942;4.026;2024-01-11T11:40:46;4.50;99.90
31133;DHT22;17779;50.942;4.026;2024-01-11T11:43:12;4.10;99.90
31133;DHT22;17779;50.942;4.026;2024-01-11T11:45:39;3.80;99.90
31133;DHT22;17779;50.942;4.026;2024-01-11T11:51:00;3.40;99.90
31133;DHT22;17779;50.942;4.026;2024-01-11T11:53:30;3.60;99.90
31133;DHT22;17779;50.942;4.026;2024-01-11T11:55:56;4.30;99.90
31133;DHT22;17779;50.942;4.026;2024-01-11T11:58:21;5.30;99.90
31133;DHT22;17779;50.942;4.026;2024-01-11T12:00:48;5.50;99.90
31133;DHT22;17779;50.942;4.026;2024-01-11T12:03:15;5.30;99.90
31133;DHT22;17779;50.942;4.026;2024-01-11T12:05:44;5.20;99.90
31133;DHT22;17779;50.942;4.026;2024-01-11T12:08:10;4.90;99.90
31133;DHT22;17779;50.942;4.026;2024-01-11T12:10:42;5.10;99.90
31133;DHT22;17779;50.942;4.026;2024-01-11T12:15:36;5.80;99.90
31133;DHT22;17779;50.942;4.026;2024-01-11T12:18:02;6.50;99.90
31133;DHT22;17779;50.942;4.026;2024-01-11T12:20:28;6.20;99.90
31133;DHT22;17779;50.942;4.026;2024-01-11T12:22:55;6.50;99.90
31133;DHT22;17779;50.942;4.026;2024-01-11T12:25:21;6.80;99.90
31133;DHT22;17779;50.942;4.026;2024-01-11T12:27:47;7.10;99.80
31133;DHT22;17779;50.942;4.026;2024-01-11T12:30:13;7.30;98.90
31133;DHT22;17779;50.942;4.026;2024-01-11T12:32:42;7.30;98.70
31133;DHT22;17779;50.942;4.026;2024-01-11T12:35:09;7.20;98.80
31133;DHT22;17779;50.942;4.026;2024-01-11T12:37:35;7.00;98.80
31133;DHT22;17779;50.942;4.026;2024-01-11T12:40:01;6.50;99.70
31133;DHT22;17779;50.942;4.026;2024-01-11T12:42:27;6.10;99.90
31133;DHT22;17779;50.942;4.026;2024-01-11T12:44:53;5.30;99.90
31133;DHT22;17779;50.942;4.026;2024-01-11T12:47:19;5.40;99.90
31133;DHT22;17779;50.942;4.026;2024-01-11T12:49:45;5.40;99.90
31133;DHT22;17779;50.942;4.026;2024-01-11T12:52:17;5.10;99.90
31133;DHT22;17779;50.942;4.026;2024-01-11T12:54:42;4.80;99.90
31133;DHT22;17779;50.942;4.026;2024-01-11T12:57:11;5.10;99.90
31133;DHT22;17779;50.942;4.026;2024-01-11T12:59:40;5.40;99.90
31133;DHT22;17779;50.942;4.026;2024-01-11T13:02:05;5.10;99.90
31133;DHT22;17779;50.942;4.026;2024-01-11T13:04:33;4.80;99.90
31133;DHT22;17779;50.942;4.026;2024-01-11T13:07:02;5.20;99.90
31133;DHT22;17779;50.942;4.026;2024-01-11T13:09:28;5.20;99.90
31133;DHT22;17779;50.942;4.026;2024-01-11T13:11:55;4.90;99.90
31133;DHT22;17779;50.942;4.026;2024-01-11T13:14:20;4.60;99.90
31133;DHT22;17779;50.942;4.026;2024-01-11T13:16:47;5.20;99.90
31133;DHT22;17779;50.942;4.026;2024-01-11T13:19:15;5.30;99.90
31133;DHT22;17779;50.942;4.026;2024-01-11T13:21:41;5.20;99.90
31133;DHT22;17779;50.942;4.026;2024-01-11T13:24:08;5.40;99.90
31133;DHT22;17779;50.942;4.026;2024-01-11T13:26:35;5.80;99.90
31133;DHT22;17779;50.942;4.026;2024-01-11T13:29:02;6.20;99.90
31133;DHT22;17779;50.942;4.026;2024-01-11T13:31:28;6.60;99.90
31133;DHT22;17779;50.942;4.026;2024-01-11T13:33:53;6.30;99.90
31133;DHT22;17779;50.942;4.026;2024-01-11T13:36:22;6.20;99.90
31133;DHT22;17779;50.942;4.026;2024-01-11T13:38:51;6.10;99.90
31133;DHT22;17779;50.942;4.026;2024-01-11T13:41:16;6.20;99.90
31133;DHT22;17779;50.942;4.026;2024-01-11T13:43:47;6.40;99.90
31133;DHT22;17779;50.942;4.026;2024-01-11T13:46:13;6.50;99.90
31133;DHT22;17779;50.942;4.026;2024-01-11T13:48:42;6.80;99.90
31133;DHT22;17779;50.942;4.026;2024-01-11T13:51:07;6.90;99.50
31133;DHT22;17779;50.942;4.026;2024-01-11T13:53:35;6.70;99.60
31133;DHT22;17779;50.942;4.026;2024-01-11T13:56:01;6.60;99.90
31133;DHT22;17779;50.942;4.026;2024-01-11T13:58:27;7.30;99.90
31133;DHT22;17779;50.942;4.026;2024-01-11T14:00:52;7.50;97.90
31133;DHT22;17779;50.942;4.026;2024-01-11T14:03:19;7.70;97.70
31133;DHT22;17779;50.942;4.026;2024-01-11T14:05:46;7.10;97.60
31133;DHT22;17779;50.942;4.026;2024-01-11T14:08:14;6.90;97.40
31133;DHT22;17779;50.942;4.026;2024-01-11T14:10:41;6.70;97.40
31133;DHT22;17779;50.942;4.026;2024-01-11T14:13:07;6.10;98.10
31133;DHT22;17779;50.942;4.026;2024-01-11T14:15:34;5.00;99.80
31133;DHT22;17779;50.942;4.026;2024-01-11T14:18:00;4.30;99.90
31133;DHT22;17779;50.942;4.026;2024-01-11T14:20:25;3.40;99.90
31133;DHT22;17779;50.942;4.026;2024-01-11T14:22:51;3.00;99.90
31133;DHT22;17779;50.942;4.026;2024-01-11T14:25:20;2.60;99.90
31133;DHT22;17779;50.942;4.026;2024-01-11T14:27:49;2.40;99.90
31133;DHT22;17779;50.942;4.026;2024-01-11T14:30:18;2.30;99.90
31133;DHT22;17779;50.942;4.026;2024-01-11T14:35:15;2.20;99.90
31133;DHT22;17779;50.942;4.026;2024-01-11T14:37:45;2.20;99.90
31133;DHT22;17779;50.942;4.026;2024-01-11T14:40:10;2.20;99.90
31133;DHT22;17779;50.942;4.026;2024-01-11T14:42:36;2.10;99.90
31133;DHT22;17779;50.942;4.026;2024-01-11T14:45:02;2.20;99.90
31133;DHT22;17779;50.942;4.026;2024-01-11T14:49:58;2.20;99.90
31133;DHT22;17779;50.942;4.026;2024-01-11T14:52:25;2.20;99.90
31133;DHT22;17779;50.942;4.026;2024-01-11T14:54:54;2.10;99.90
31133;DHT22;17779;50.942;4.026;2024-01-11T14:57:23;2.10;99.90
31133;DHT22;17779;50.942;4.026;2024-01-11T14:59:50;2.00;99.90
31133;DHT22;17779;50.942;4.026;2024-01-11T15:02:18;1.80;99.90
31133;DHT22;17779;50.942;4.026;2024-01-11T15:04:43;1.80;99.90
31133;DHT22;17779;50.942;4.026;2024-01-11T15:07:11;1.80;99.90
31133;DHT22;17779;50.942;4.026;2024-01-11T15:09:39;1.80;99.90
31133;DHT22;17779;50.942;4.026;2024-01-11T15:12:06;1.90;99.90
31133;DHT22;17779;50.942;4.026;2024-01-11T15:14:32;1.80;99.90
31133;DHT22;17779;50.942;4.026;2024-01-11T15:16:58;1.80;99.90
31133;DHT22;17779;50.942;4.026;2024-01-11T15:19:23;1.90;99.90
31133;DHT22;17779;50.942;4.026;2024-01-11T15:21:49;1.80;99.90
31133;DHT22;17779;50.942;4.026;2024-01-11T15:24:16;1.90;99.90
31133;DHT22;17779;50.942;4.026;2024-01-11T15:26:44;1.70;99.90
31133;DHT22;17779;50.942;4.026;2024-01-11T15:29:10;1.70;99.90
31133;DHT22;17779;50.942;4.026;2024-01-11T15:34:06;1.70;99.90
31133;DHT22;17779;50.942;4.026;2024-01-11T15:36:32;1.70;99.90
31133;DHT22;17779;50.942;4.026;2024-01-11T15:38:58;1.60;99.90
31133;DHT22;17779;50.942;4.026;2024-01-11T15:41:24;1.70;99.90
31133;DHT22;17779;50.942;4.026;2024-01-11T15:43:49;1.70;99.90
31133;DHT22;17779;50.942;4.026;2024-01-11T15:46:18;1.70;99.90
31133;DHT22;17779;50.942;4.026;2024-01-11T15:48:44;1.70;99.90
31133;DHT22;17779;50.942;4.026;2024-01-11T15:51:10;1.80;99.90
31133;DHT22;17779;50.942;4.026;2024-01-11T15:53:36;1.80;99.90
31133;DHT22;17779;50.942;4.026;2024-01-11T15:56:01;1.90;99.90
31133;DHT22;17779;50.942;4.026;2024-01-11T15:58:27;1.80;99.90
31133;DHT22;17779;50.942;4.026;2024-01-11T16:00:53;1.80;99.90
31133;DHT22;17779;50.942;4.026;2024-01-11T16:03:19;1.90;99.90
31133;DHT22;17779;50.942;4.026;2024-01-11T16:05:44;1.80;99.90
31133;DHT22;17779;50.942;4.026;2024-01-11T16:08:10;1.90;99.90
31133;DHT22;17779;50.942;4.026;2024-01-11T16:10:35;2.00;99.90
31133;DHT22;17779;50.942;4.026;2024-01-11T16:13:03;2.10;99.90
31133;DHT22;17779;50.942;4.026;2024-01-11T16:15:30;2.10;99.90
31133;DHT22;17779;50.942;4.026;2024-01-11T16:17:56;2.20;99.90
31133;DHT22;17779;50.942;4.026;2024-01-11T16:20:23;2.40;99.90